sensor_id;sensor_type;location;lat;lon;timestamp;pressure;altitude;pressure_sealevel;temperature;humidity
7264;BME280;3673;52.480;13.348;2023-04-27T00:00:53;101382.34;;;11.90;43.58
7264;BME280;3673;52.480;13.348;2023-04-27T00:03:20;101377.13;;;12.08;43.40
7264;BME280;3673;52.480;13.348;2023-04-27T00:05:47;101384.22;;;12.33;43.05
7264;BME280;3673;52.480;13.348;2023-04-27T00:08:13;101371.00;;;12.03;43.69
7264;BME280;3673;52.480;13.348;2023-04-27T00:10:40;101385.84;;;12.01;43.39
7264;BME280;3673;52.480;13.348;2023-04-27T00:13:07;101384.16;;;12.12;43.55
7264;BME280;3673;52.480;13.348;2023-04-27T00:15:34;101380.53;;;11.78;43.92
7264;BME280;3673;52.480;13.348;2023-04-27T00:18:02;101380.41;;;11.60;44.64
7264;BME280;3673;52.480;13.348;2023-04-27T00:20:29;101376.91;;;11.61;44.62
7264;BME280;3673;52.480;13.348;2023-04-27T00:22:55;101368.25;;;11.74;44.19
7264;BME280;3673;52.480;13.348;2023-04-27T00:25:22;101379.63;;;11.70;44.28
7264;BME280;3673;52.480;13.348;2023-04-27T00:27:49;101382.41;;;12.07;43.61
7264;BME280;3673;52.480;13.348;2023-04-27T00:30:16;101377.13;;;12.04;43.73
7264;BME280;3673;52.480;13.348;2023-04-27T00:32:42;101378.91;;;12.18;43.33
7264;BME280;3673;52.480;13.348;2023-04-27T00:35:11;101383.22;;;12.01;43.58
7264;BME280;3673;52.480;13.348;2023-04-27T00:37:38;101373.56;;;11.88;43.85
7264;BME280;3673;52.480;13.348;2023-04-27T00:40:06;101378.88;;;12.08;43.66
7264;BME280;3673;52.480;13.348;2023-04-27T00:42:33;101378.91;;;12.21;43.28
7264;BME280;3673;52.480;13.348;2023-04-27T00:45:00;101373.72;;;12.30;43.00
7264;BME280;3673;52.480;13.348;2023-04-27T00:47:28;101383.31;;;12.24;43.07
7264;BME280;3673;52.480;13.348;2023-04-27T00:49:55;101390.25;;;12.07;43.48
7264;BME280;3673;52.480;13.348;2023-04-27T00:52:24;101385.03;;;12.10;43.71
7264;BME280;3673;52.480;13.348;2023-04-27T00:54:51;101390.13;;;11.81;44.02
7264;BME280;3673;52.480;13.348;2023-04-27T00:57:18;101383.22;;;11.97;43.85
7264;BME280;3673;52.480;13.348;2023-04-27T00:59:47;101391.78;;;11.61;44.44
7264;BME280;3673;52.480;13.348;2023-04-27T01:02:14;101394.56;;;11.90;43.79
7264;BME280;3673;52.480;13.348;2023-04-27T01:04:41;101394.47;;;11.73;44.22
7264;BME280;3673;52.480;13.348;2023-04-27T01:07:09;101400.50;;;11.60;44.48
7264;BME280;3673;52.480;13.348;2023-04-27T01:09:37;101395.34;;;11.75;44.72
7264;BME280;3673;52.480;13.348;2023-04-27T01:12:04;101399.81;;;11.96;43.98
7264;BME280;3673;52.480;13.348;2023-04-27T01:14:31;101399.78;;;11.88;44.80
7264;BME280;3673;52.480;13.348;2023-04-27T01:16:58;101396.88;;;11.41;45.53
7264;BME280;3673;52.480;13.348;2023-04-27T01:19:24;101394.53;;;11.83;44.96
7264;BME280;3673;52.480;13.348;2023-04-27T01:21:51;101402.47;;;12.00;44.36
7264;BME280;3673;52.480;13.348;2023-04-27T01:24:19;101396.41;;;12.10;44.15
7264;BME280;3673;52.480;13.348;2023-04-27T01:26:46;101401.53;;;11.83;44.42
7264;BME280;3673;52.480;13.348;2023-04-27T01:29:14;101402.38;;;11.77;44.74
7264;BME280;3673;52.480;13.348;2023-04-27T01:31:41;101409.16;;;11.48;45.67
7264;BME280;3673;52.480;13.348;2023-04-27T01:34:07;101405.69;;;11.49;45.65
7264;BME280;3673;52.480;13.348;2023-04-27T01:36:35;101412.13;;;12.07;44.18
7264;BME280;3673;52.480;13.348;2023-04-27T01:39:02;101405.06;;;11.96;44.09
7264;BME280;3673;52.480;13.348;2023-04-27T01:41:35;101410.88;;;11.45;45.64
7264;BME280;3673;52.480;13.348;2023-04-27T01:44:02;101413.63;;;11.63;45.26
7264;BME280;3673;52.480;13.348;2023-04-27T01:46:28;101411.09;;;11.78;44.75
7264;BME280;3673;52.480;13.348;2023-04-27T01:48:55;101415.38;;;11.61;45.15
7264;BME280;3673;52.480;13.348;2023-04-27T01:51:22;101415.31;;;11.55;45.20
7264;BME280;3673;52.480;13.348;2023-04-27T01:53:49;101411.06;;;11.72;44.65
7264;BME280;3673;52.480;13.348;2023-04-27T01:56:15;101420.53;;;11.55;44.71
7264;BME280;3673;52.480;13.348;2023-04-27T01:58:43;101428.19;;;11.21;45.30
7264;BME280;3673;52.480;13.348;2023-04-27T02:01:10;101422.88;;;11.12;45.12
7264;BME280;3673;52.480;13.348;2023-04-27T02:03:37;101424.59;;;11.09;45.38
7264;BME280;3673;52.480;13.348;2023-04-27T02:06:09;101427.72;;;11.77;44.82
7264;BME280;3673;52.480;13.348;2023-04-27T02:08:36;101431.94;;;11.58;44.58
7264;BME280;3673;52.480;13.348;2023-04-27T02:11:03;101426.84;;;11.81;44.26
7264;BME280;3673;52.480;13.348;2023-04-27T02:13:30;101443.59;;;12.09;43.60
7264;BME280;3673;52.480;13.348;2023-04-27T02:15:58;101432.97;;;11.83;43.89
7264;BME280;3673;52.480;13.348;2023-04-27T02:18:26;101439.31;;;12.27;43.57
7264;BME280;3673;52.480;13.348;2023-04-27T02:20:53;101441.00;;;12.19;42.74
7264;BME280;3673;52.480;13.348;2023-04-27T02:23:20;101442.78;;;12.28;42.71
7264;BME280;3673;52.480;13.348;2023-04-27T02:25:47;101443.56;;;12.00;43.12
7264;BME280;3673;52.480;13.348;2023-04-27T02:28:14;101432.28;;;12.23;42.65
7264;BME280;3673;52.480;13.348;2023-04-27T02:30:40;101449.84;;;12.43;42.49
7264;BME280;3673;52.480;13.348;2023-04-27T02:33:08;101451.09;;;11.51;43.27
7264;BME280;3673;52.480;13.348;2023-04-27T02:35:35;101445.81;;;11.42;43.76
7264;BME280;3673;52.480;13.348;2023-04-27T02:38:02;101450.13;;;11.35;44.19
7264;BME280;3673;52.480;13.348;2023-04-27T02:40:29;101446.75;;;11.55;43.90
7264;BME280;3673;52.480;13.348;2023-04-27T02:42:55;101441.88;;;12.11;42.91
7264;BME280;3673;52.480;13.348;2023-04-27T02:45:22;101442.72;;;12.10;42.63
7264;BME280;3673;52.480;13.348;2023-04-27T02:47:49;101445.81;;;11.41;43.62
7264;BME280;3673;52.480;13.348;2023-04-27T02:50:18;101447.38;;;11.17;44.01
7264;BME280;3673;52.480;13.348;2023-04-27T02:52:44;101451.06;;;11.44;43.90
7264;BME280;3673;52.480;13.348;2023-04-27T02:55:11;101450.44;;;11.81;43.34
7264;BME280;3673;52.480;13.348;2023-04-27T02:57:39;101453.81;;;11.63;43.60
7264;BME280;3673;52.480;13.348;2023-04-27T03:00:07;101448.81;;;12.04;43.02
7264;BME280;3673;52.480;13.348;2023-04-27T03:02:35;101458.03;;;11.43;44.01
7264;BME280;3673;52.480;13.348;2023-04-27T03:05:02;101462.66;;;11.76;43.46
7264;BME280;3673;52.480;13.348;2023-04-27T03:07:31;101457.00;;;11.24;45.00
7264;BME280;3673;52.480;13.348;2023-04-27T03:09:58;101462.22;;;11.17;44.87
7264;BME280;3673;52.480;13.348;2023-04-27T03:12:24;101462.22;;;11.20;44.88
7264;BME280;3673;52.480;13.348;2023-04-27T03:14:51;101461.66;;;11.60;44.11
7264;BME280;3673;52.480;13.348;2023-04-27T03:17:18;101456.25;;;11.37;44.18
7264;BME280;3673;52.480;13.348;2023-04-27T03:19:46;101461.41;;;11.24;44.47
7264;BME280;3673;52.480;13.348;2023-04-27T03:22:13;101463.16;;;11.28;44.00
7264;BME280;3673;52.480;13.348;2023-04-27T03:24:41;101465.16;;;11.61;43.78
7264;BME280;3673;52.480;13.348;2023-04-27T03:27:08;101465.31;;;11.83;44.01
7264;BME280;3673;52.480;13.348;2023-04-27T03:29:35;101464.53;;;12.01;43.12
7264;BME280;3673;52.480;13.348;2023-04-27T03:32:02;101469.66;;;11.78;43.29
7264;BME280;3673;52.480;13.348;2023-04-27T03:34:30;101462.63;;;11.71;43.54
7264;BME280;3673;52.480;13.348;2023-04-27T03:36:56;101473.88;;;11.60;44.09
7264;BME280;3673;52.480;13.348;2023-04-27T03:39:23;101472.88;;;11.43;44.63
7264;BME280;3673;52.480;13.348;2023-04-27T03:41:51;101470.25;;;11.40;44.50
7264;BME280;3673;52.480;13.348;2023-04-27T03:44:18;101478.72;;;11.08;45.39
7264;BME280;3673;52.480;13.348;2023-04-27T03:46:45;101485.56;;;10.93;45.71
7264;BME280;3673;52.480;13.348;2023-04-27T03:49:11;101478.84;;;11.20;45.07
7264;BME280;3673;52.480;13.348;2023-04-27T03:51:38;101482.19;;;11.06;45.27
7264;BME280;3673;52.480;13.348;2023-04-27T03:54:06;101492.09;;;11.43;45.04
7264;BME280;3673;52.480;13.348;2023-04-27T03:56:34;101487.81;;;11.54;44.87
7264;BME280;3673;52.480;13.348;2023-04-27T03:59:03;101487.59;;;11.28;44.71
7264;BME280;3673;52.480;13.348;2023-04-27T04:01:29;101501.31;;;10.97;45.64
7264;BME280;3673;52.480;13.348;2023-04-27T04:03:56;101506.31;;;10.76;46.12
7264;BME280;3673;52.480;13.348;2023-04-27T04:06:23;101496.94;;;10.98;45.34
7264;BME280;3673;52.480;13.348;2023-04-27T04:08:50;101512.66;;;10.96;45.78
7264;BME280;3673;52.480;13.348;2023-04-27T04:11:17;101502.94;;;10.86;45.67
7264;BME280;3673;52.480;13.348;2023-04-27T04:13:44;101504.00;;;11.03;45.24
7264;BME280;3673;52.480;13.348;2023-04-27T04:16:13;101513.03;;;11.37;44.85
7264;BME280;3673;52.480;13.348;2023-04-27T04:18:39;101513.56;;;11.04;45.31
7264;BME280;3673;52.480;13.348;2023-04-27T04:21:08;101512.03;;;11.27;45.00
7264;BME280;3673;52.480;13.348;2023-04-27T04:23:35;101515.69;;;11.48;44.37
7264;BME280;3673;52.480;13.348;2023-04-27T04:26:03;101515.53;;;11.23;44.95
7264;BME280;3673;52.480;13.348;2023-04-27T04:28:30;101509.09;;;10.90;45.65
7264;BME280;3673;52.480;13.348;2023-04-27T04:30:56;101514.78;;;11.40;44.74
7264;BME280;3673;52.480;13.348;2023-04-27T04:33:25;101517.50;;;11.50;44.47
7264;BME280;3673;52.480;13.348;2023-04-27T04:35:52;101515.47;;;11.17;45.25
7264;BME280;3673;52.480;13.348;2023-04-27T04:38:19;101520.00;;;11.36;45.16
7264;BME280;3673;52.480;13.348;2023-04-27T04:40:46;101516.78;;;11.71;44.34
7264;BME280;3673;52.480;13.348;2023-04-27T04:43:13;101522.03;;;11.71;44.74
7264;BME280;3673;52.480;13.348;2023-04-27T04:45:39;101525.53;;;11.74;44.13
7264;BME280;3673;52.480;13.348;2023-04-27T04:48:07;101524.88;;;10.99;45.54
7264;BME280;3673;52.480;13.348;2023-04-27T04:50:36;101524.06;;;11.04;45.39
7264;BME280;3673;52.480;13.348;2023-04-27T04:53:04;101531.16;;;11.16;45.38
7264;BME280;3673;52.480;13.348;2023-04-27T04:55:31;101533.06;;;11.35;44.92
7264;BME280;3673;52.480;13.348;2023-04-27T04:57:58;101526.97;;;11.37;44.85
7264;BME280;3673;52.480;13.348;2023-04-27T05:00:24;101534.13;;;11.57;44.69
7264;BME280;3673;52.480;13.348;2023-04-27T05:02:51;101536.66;;;11.48;44.98
7264;BME280;3673;52.480;13.348;2023-04-27T05:05:18;101532.59;;;11.84;44.58
7264;BME280;3673;52.480;13.348;2023-04-27T05:07:47;101535.53;;;11.18;45.47
7264;BME280;3673;52.480;13.348;2023-04-27T05:10:13;101535.06;;;11.68;44.61
7264;BME280;3673;52.480;13.348;2023-04-27T05:12:40;101545.38;;;11.45;45.41
7264;BME280;3673;52.480;13.348;2023-04-27T05:15:10;101544.47;;;11.42;45.37
7264;BME280;3673;52.480;13.348;2023-04-27T05:17:37;101546.16;;;11.30;45.74
7264;BME280;3673;52.480;13.348;2023-04-27T05:20:05;101536.41;;;11.16;45.63
7264;BME280;3673;52.480;13.348;2023-04-27T05:22:33;101547.41;;;11.76;44.85
7264;BME280;3673;52.480;13.348;2023-04-27T05:25:01;101545.81;;;11.97;44.65
7264;BME280;3673;52.480;13.348;2023-04-27T05:27:28;101545.00;;;12.10;43.73
7264;BME280;3673;52.480;13.348;2023-04-27T05:29:55;101540.66;;;12.13;44.18
7264;BME280;3673;52.480;13.348;2023-04-27T05:32:21;101544.06;;;11.97;44.24
7264;BME280;3673;52.480;13.348;2023-04-27T05:34:48;101544.00;;;11.88;44.25
7264;BME280;3673;52.480;13.348;2023-04-27T05:37:15;101539.22;;;11.38;45.13
7264;BME280;3673;52.480;13.348;2023-04-27T05:39:42;101541.13;;;11.56;44.86
7264;BME280;3673;52.480;13.348;2023-04-27T05:42:10;101539.56;;;11.81;44.16
7264;BME280;3673;52.480;13.348;2023-04-27T05:44:37;101543.06;;;11.78;44.43
7264;BME280;3673;52.480;13.348;2023-04-27T05:47:04;101539.63;;;11.87;44.15
7264;BME280;3673;52.480;13.348;2023-04-27T05:49:31;101549.91;;;11.63;44.24
7264;BME280;3673;52.480;13.348;2023-04-27T05:51:57;101549.09;;;11.70;44.65
7264;BME280;3673;52.480;13.348;2023-04-27T05:54:24;101549.03;;;11.61;44.51
7264;BME280;3673;52.480;13.348;2023-04-27T05:56:52;101556.16;;;11.77;44.19
7264;BME280;3673;52.480;13.348;2023-04-27T05:59:20;101553.47;;;11.71;44.15
7264;BME280;3673;52.480;13.348;2023-04-27T06:01:47;101553.41;;;11.68;43.67
7264;BME280;3673;52.480;13.348;2023-04-27T06:04:13;101558.97;;;12.03;43.91
7264;BME280;3673;52.480;13.348;2023-04-27T06:06:40;101569.69;;;12.47;43.05
7264;BME280;3673;52.480;13.348;2023-04-27T06:09:07;101569.31;;;11.87;43.47
7264;BME280;3673;52.480;13.348;2023-04-27T06:11:34;101565.97;;;12.07;43.41
7264;BME280;3673;52.480;13.348;2023-04-27T06:14:01;101569.53;;;12.16;43.58
7264;BME280;3673;52.480;13.348;2023-04-27T06:16:29;101568.38;;;11.75;44.01
7264;BME280;3673;52.480;13.348;2023-04-27T06:18:56;101560.56;;;11.79;43.83
7264;BME280;3673;52.480;13.348;2023-04-27T06:21:22;101572.63;;;11.61;44.14
7264;BME280;3673;52.480;13.348;2023-04-27T06:23:49;101569.97;;;11.59;44.23
7264;BME280;3673;52.480;13.348;2023-04-27T06:26:16;101566.81;;;12.00;43.62
7264;BME280;3673;52.480;13.348;2023-04-27T06:28:42;101569.19;;;11.71;43.35
7264;BME280;3673;52.480;13.348;2023-04-27T06:31:09;101568.56;;;12.02;42.79
7264;BME280;3673;52.480;13.348;2023-04-27T06:33:37;101574.72;;;12.07;42.54
7264;BME280;3673;52.480;13.348;2023-04-27T06:36:04;101573.91;;;12.19;42.05
7264;BME280;3673;52.480;13.348;2023-04-27T06:38:31;101578.47;;;12.55;41.29
7264;BME280;3673;52.480;13.348;2023-04-27T06:40:58;101568.06;;;12.76;41.06
7264;BME280;3673;52.480;13.348;2023-04-27T06:43:24;101580.38;;;13.01;40.50
7264;BME280;3673;52.480;13.348;2023-04-27T06:45:52;101577.78;;;13.04;40.51
7264;BME280;3673;52.480;13.348;2023-04-27T06:48:19;101580.84;;;12.06;42.10
7264;BME280;3673;52.480;13.348;2023-04-27T06:50:47;101585.38;;;12.33;41.50
7264;BME280;3673;52.480;13.348;2023-04-27T06:53:14;101584.59;;;12.58;40.87
7264;BME280;3673;52.480;13.348;2023-04-27T06:55:42;101576.84;;;12.88;40.25
7264;BME280;3673;52.480;13.348;2023-04-27T06:58:09;101587.06;;;12.28;40.82
7264;BME280;3673;52.480;13.348;2023-04-27T07:00:35;101582.69;;;12.22;41.40
7264;BME280;3673;52.480;13.348;2023-04-27T07:03:02;101582.88;;;12.62;40.67
7264;BME280;3673;52.480;13.348;2023-04-27T07:05:29;101583.78;;;12.71;40.33
7264;BME280;3673;52.480;13.348;2023-04-27T07:07:57;101593.91;;;11.99;41.06
7264;BME280;3673;52.480;13.348;2023-04-27T07:10:24;101592.50;;;12.60;40.11
7264;BME280;3673;52.480;13.348;2023-04-27T07:12:51;101587.13;;;12.32;41.51
7264;BME280;3673;52.480;13.348;2023-04-27T07:15:18;101596.41;;;11.82;41.50
7264;BME280;3673;52.480;13.348;2023-04-27T07:17:44;101593.31;;;12.51;40.56
7264;BME280;3673;52.480;13.348;2023-04-27T07:20:11;101598.72;;;12.84;40.28
7264;BME280;3673;52.480;13.348;2023-04-27T07:22:38;101593.59;;;13.19;39.35
7264;BME280;3673;52.480;13.348;2023-04-27T07:25:08;101592.63;;;12.90;39.69
7264;BME280;3673;52.480;13.348;2023-04-27T07:27:35;101591.91;;;13.47;39.10
7264;BME280;3673;52.480;13.348;2023-04-27T07:30:02;101589.72;;;12.31;39.87
7264;BME280;3673;52.480;13.348;2023-04-27T07:32:30;101599.44;;;12.49;40.05
7264;BME280;3673;52.480;13.348;2023-04-27T07:34:57;101585.72;;;13.28;38.95
7264;BME280;3673;52.480;13.348;2023-04-27T07:37:24;101586.47;;;12.88;39.45
7264;BME280;3673;52.480;13.348;2023-04-27T07:39:51;101592.66;;;13.08;38.66
7264;BME280;3673;52.480;13.348;2023-04-27T07:42:20;101594.53;;;13.44;38.82
7264;BME280;3673;52.480;13.348;2023-04-27T07:44:48;101588.38;;;13.30;38.60
7264;BME280;3673;52.480;13.348;2023-04-27T07:47:15;101593.66;;;13.83;38.41
7264;BME280;3673;52.480;13.348;2023-04-27T07:49:42;101596.22;;;14.24;37.89
7264;BME280;3673;52.480;13.348;2023-04-27T07:52:10;101597.09;;;14.35;36.32
7264;BME280;3673;52.480;13.348;2023-04-27T07:54:36;101591.88;;;13.39;37.63
7264;BME280;3673;52.480;13.348;2023-04-27T07:57:07;101600.66;;;13.57;37.66
7264;BME280;3673;52.480;13.348;2023-04-27T07:59:36;101606.78;;;13.33;38.13
7264;BME280;3673;52.480;13.348;2023-04-27T08:02:03;101614.41;;;12.66;39.02
7264;BME280;3673;52.480;13.348;2023-04-27T08:04:30;101603.13;;;12.87;38.44
7264;BME280;3673;52.480;13.348;2023-04-27T08:06:57;101604.84;;;12.82;38.28
7264;BME280;3673;52.480;13.348;2023-04-27T08:09:24;101606.78;;;13.36;37.39
7264;BME280;3673;52.480;13.348;2023-04-27T08:11:51;101604.16;;;13.59;36.99
7264;BME280;3673;52.480;13.348;2023-04-27T08:14:18;101600.69;;;13.48;37.87
7264;BME280;3673;52.480;13.348;2023-04-27T08:16:46;101606.78;;;13.81;36.35
7264;BME280;3673;52.480;13.348;2023-04-27T08:19:13;101612.94;;;13.88;36.42
7264;BME280;3673;52.480;13.348;2023-04-27T08:21:40;101614.63;;;13.22;36.60
7264;BME280;3673;52.480;13.348;2023-04-27T08:24:07;101607.66;;;13.46;36.23
7264;BME280;3673;52.480;13.348;2023-04-27T08:26:34;101612.94;;;13.61;35.96
7264;BME280;3673;52.480;13.348;2023-04-27T08:29:01;101616.31;;;13.08;36.53
7264;BME280;3673;52.480;13.348;2023-04-27T08:31:28;101612.06;;;13.50;35.92
7264;BME280;3673;52.480;13.348;2023-04-27T08:33:56;101623.47;;;13.80;35.89
7264;BME280;3673;52.480;13.348;2023-04-27T08:36:24;101626.97;;;13.84;35.69
7264;BME280;3673;52.480;13.348;2023-04-27T08:38:52;101622.44;;;13.06;36.48
7264;BME280;3673;52.480;13.348;2023-04-27T08:41:19;101630.25;;;12.83;37.09
7264;BME280;3673;52.480;13.348;2023-04-27T08:43:47;101615.28;;;12.68;38.11
7264;BME280;3673;52.480;13.348;2023-04-27T08:46:17;101626.06;;;13.36;37.46
7264;BME280;3673;52.480;13.348;2023-04-27T08:48:46;101616.41;;;13.29;37.66
7264;BME280;3673;52.480;13.348;2023-04-27T08:51:16;101625.22;;;13.83;36.22
7264;BME280;3673;52.480;13.348;2023-04-27T08:53:48;101622.53;;;13.42;36.43
7264;BME280;3673;52.480;13.348;2023-04-27T08:56:16;101625.84;;;12.80;37.76
7264;BME280;3673;52.480;13.348;2023-04-27T08:58:42;101618.16;;;13.32;37.28
7264;BME280;3673;52.480;13.348;2023-04-27T09:01:09;101616.19;;;12.67;38.54
7264;BME280;3673;52.480;13.348;2023-04-27T09:03:37;101620.53;;;12.64;38.36
7264;BME280;3673;52.480;13.348;2023-04-27T09:06:04;101617.00;;;12.59;38.72
7264;BME280;3673;52.480;13.348;2023-04-27T09:08:43;101610.25;;;13.11;37.58
7264;BME280;3673;52.480;13.348;2023-04-27T09:11:10;101620.78;;;14.08;36.04
7264;BME280;3673;52.480;13.348;2023-04-27T09:13:38;101606.78;;;14.16;35.81
7264;BME280;3673;52.480;13.348;2023-04-27T09:16:06;101605.66;;;14.96;34.66
7264;BME280;3673;52.480;13.348;2023-04-27T09:18:35;101607.63;;;14.30;34.09
7264;BME280;3673;52.480;13.348;2023-04-27T09:21:03;101619.06;;;14.37;33.76
7264;BME280;3673;52.480;13.348;2023-04-27T09:23:32;101620.81;;;13.58;34.89
7264;BME280;3673;52.480;13.348;2023-04-27T09:26:01;101621.53;;;12.98;36.46
7264;BME280;3673;52.480;13.348;2023-04-27T09:28:30;101618.84;;;12.76;37.02
7264;BME280;3673;52.480;13.348;2023-04-27T09:31:00;101616.31;;;13.01;37.09
7264;BME280;3673;52.480;13.348;2023-04-27T09:33:30;101613.63;;;12.90;37.41
7264;BME280;3673;52.480;13.348;2023-04-27T09:35:59;101611.00;;;12.91;37.45
7264;BME280;3673;52.480;13.348;2023-04-27T09:38:26;101607.47;;;12.85;37.09
7264;BME280;3673;52.480;13.348;2023-04-27T09:40:54;101604.13;;;13.31;36.66
7264;BME280;3673;52.480;13.348;2023-04-27T09:43:22;101595.44;;;13.64;36.02
7264;BME280;3673;52.480;13.348;2023-04-27T09:45:52;101590.13;;;13.41;36.24
7264;BME280;3673;52.480;13.348;2023-04-27T09:48:21;101604.19;;;13.87;34.37
7264;BME280;3673;52.480;13.348;2023-04-27T09:50:49;101602.38;;;14.23;33.66
7264;BME280;3673;52.480;13.348;2023-04-27T09:53:19;101591.00;;;14.13;33.82
7264;BME280;3673;52.480;13.348;2023-04-27T09:56:13;101590.97;;;14.19;34.10
7264;BME280;3673;52.480;13.348;2023-04-27T09:59:09;101581.28;;;14.41;34.04
7264;BME280;3673;52.480;13.348;2023-04-27T10:01:45;101577.84;;;14.13;34.14
7264;BME280;3673;52.480;13.348;2023-04-27T10:04:26;101568.50;;;15.37;32.33
7264;BME280;3673;52.480;13.348;2023-04-27T10:06:59;101578.97;;;15.49;30.72
7264;BME280;3673;52.480;13.348;2023-04-27T10:09:33;101578.81;;;15.69;28.63
7264;BME280;3673;52.480;13.348;2023-04-27T10:12:14;101574.00;;;16.89;27.61
7264;BME280;3673;52.480;13.348;2023-04-27T10:14:53;101573.78;;;16.31;28.50
7264;BME280;3673;52.480;13.348;2023-04-27T10:17:28;101580.91;;;17.01;28.32
7264;BME280;3673;52.480;13.348;2023-04-27T10:19:57;101577.22;;;16.38;28.67
7264;BME280;3673;52.480;13.348;2023-04-27T10:22:36;101576.44;;;15.34;30.56
7264;BME280;3673;52.480;13.348;2023-04-27T10:25:15;101578.00;;;15.62;29.90
7264;BME280;3673;52.480;13.348;2023-04-27T10:27:48;101572.44;;;15.92;29.59
7264;BME280;3673;52.480;13.348;2023-04-27T10:30:19;101572.47;;;15.89;29.45
7264;BME280;3673;52.480;13.348;2023-04-27T10:32:51;101570.34;;;16.26;28.64
7264;BME280;3673;52.480;13.348;2023-04-27T10:35:19;101577.47;;;15.06;28.87
7264;BME280;3673;52.480;13.348;2023-04-27T10:37:47;101575.75;;;16.13;28.39
7264;BME280;3673;52.480;13.348;2023-04-27T10:40:14;101571.53;;;16.77;27.26
7264;BME280;3673;52.480;13.348;2023-04-27T10:42:44;101572.78;;;16.41;27.87
7264;BME280;3673;52.480;13.348;2023-04-27T10:45:11;101574.91;;;14.97;29.49
7264;BME280;3673;52.480;13.348;2023-04-27T10:47:41;101564.13;;;15.31;29.48
7264;BME280;3673;52.480;13.348;2023-04-27T10:50:10;101572.91;;;15.36;29.32
7264;BME280;3673;52.480;13.348;2023-04-27T10:52:41;101579.16;;;15.19;29.68
7264;BME280;3673;52.480;13.348;2023-04-27T10:55:15;101579.56;;;14.20;31.45
7264;BME280;3673;52.480;13.348;2023-04-27T10:57:47;101579.53;;;14.43;31.47
7264;BME280;3673;52.480;13.348;2023-04-27T11:00:20;101578.66;;;14.39;31.41
7264;BME280;3673;52.480;13.348;2023-04-27T11:02:50;101579.59;;;13.94;31.97
7264;BME280;3673;52.480;13.348;2023-04-27T11:05:18;101571.53;;;14.66;31.45
7264;BME280;3673;52.480;13.348;2023-04-27T11:07:45;101580.38;;;14.56;31.50
7264;BME280;3673;52.480;13.348;2023-04-27T11:10:17;101585.66;;;14.53;31.37
7264;BME280;3673;52.480;13.348;2023-04-27T11:12:44;101574.94;;;14.93;31.46
7264;BME280;3673;52.480;13.348;2023-04-27T11:15:12;101569.91;;;15.83;29.75
7264;BME280;3673;52.480;13.348;2023-04-27T11:17:39;101560.88;;;16.82;27.88
7264;BME280;3673;52.480;13.348;2023-04-27T11:20:08;101571.84;;;17.74;27.14
7264;BME280;3673;52.480;13.348;2023-04-27T11:22:43;101566.22;;;17.93;26.59
7264;BME280;3673;52.480;13.348;2023-04-27T11:25:11;101565.38;;;17.36;26.01
7264;BME280;3673;52.480;13.348;2023-04-27T11:27:39;101571.28;;;16.19;27.73
7264;BME280;3673;52.480;13.348;2023-04-27T11:30:19;101573.69;;;16.42;27.12
7264;BME280;3673;52.480;13.348;2023-04-27T11:32:46;101568.34;;;16.45;26.68
7264;BME280;3673;52.480;13.348;2023-04-27T11:35:15;101560.22;;;16.68;26.16
7264;BME280;3673;52.480;13.348;2023-04-27T11:37:42;101576.34;;;16.40;25.82
7264;BME280;3673;52.480;13.348;2023-04-27T11:40:12;101580.53;;;15.73;27.17
7264;BME280;3673;52.480;13.348;2023-04-27T11:42:40;101576.06;;;15.82;27.22
7264;BME280;3673;52.480;13.348;2023-04-27T11:45:11;101578.53;;;15.99;27.59
7264;BME280;3673;52.480;13.348;2023-04-27T11:47:38;101584.38;;;16.28;27.85
7264;BME280;3673;52.480;13.348;2023-04-27T11:50:07;101578.47;;;16.07;28.08
7264;BME280;3673;52.480;13.348;2023-04-27T11:52:37;101584.59;;;16.09;28.34
7264;BME280;3673;52.480;13.348;2023-04-27T11:55:05;101587.00;;;16.34;28.24
7264;BME280;3673;52.480;13.348;2023-04-27T11:57:34;101583.50;;;15.30;28.57
7264;BME280;3673;52.480;13.348;2023-04-27T12:00:04;101595.94;;;15.07;29.13
7264;BME280;3673;52.480;13.348;2023-04-27T12:02:35;101596.72;;;15.21;29.45
7264;BME280;3673;52.480;13.348;2023-04-27T12:05:03;101601.00;;;15.40;28.78
7264;BME280;3673;52.480;13.348;2023-04-27T12:07:30;101602.13;;;16.17;28.11
7264;BME280;3673;52.480;13.348;2023-04-27T12:09:59;101601.13;;;16.30;26.61
7264;BME280;3673;52.480;13.348;2023-04-27T12:12:26;101598.66;;;16.88;26.35
7264;BME280;3673;52.480;13.348;2023-04-27T12:14:53;101593.25;;;16.23;25.66
7264;BME280;3673;52.480;13.348;2023-04-27T12:17:19;101593.16;;;16.32;26.29
7264;BME280;3673;52.480;13.348;2023-04-27T12:19:46;101613.72;;;15.98;27.32
7264;BME280;3673;52.480;13.348;2023-04-27T12:22:13;101596.53;;;15.53;28.08
7264;BME280;3673;52.480;13.348;2023-04-27T12:24:40;101606.28;;;15.34;28.69
7264;BME280;3673;52.480;13.348;2023-04-27T12:27:08;101604.38;;;15.64;28.34
7264;BME280;3673;52.480;13.348;2023-04-27T12:29:35;101605.31;;;15.57;28.73
7264;BME280;3673;52.480;13.348;2023-04-27T12:32:02;101614.31;;;15.21;29.06
7264;BME280;3673;52.480;13.348;2023-04-27T12:34:29;101608.19;;;15.14;28.99
7264;BME280;3673;52.480;13.348;2023-04-27T12:36:56;101610.56;;;15.60;27.67
7264;BME280;3673;52.480;13.348;2023-04-27T12:39:23;101603.25;;;15.93;26.68
7264;BME280;3673;52.480;13.348;2023-04-27T12:41:50;101595.16;;;16.09;26.66
7264;BME280;3673;52.480;13.348;2023-04-27T12:44:19;101605.66;;;16.18;26.69
7264;BME280;3673;52.480;13.348;2023-04-27T12:46:46;101593.13;;;15.33;27.69
7264;BME280;3673;52.480;13.348;2023-04-27T12:49:13;101597.06;;;15.91;27.46
7264;BME280;3673;52.480;13.348;2023-04-27T12:51:40;101603.75;;;15.22;28.43
7264;BME280;3673;52.480;13.348;2023-04-27T12:54:09;101607.41;;;14.97;29.12
7264;BME280;3673;52.480;13.348;2023-04-27T12:56:36;101598.16;;;15.69;28.49
7264;BME280;3673;52.480;13.348;2023-04-27T12:59:03;101606.94;;;15.68;29.05
7264;BME280;3673;52.480;13.348;2023-04-27T13:01:31;101608.09;;;15.31;29.28
7264;BME280;3673;52.480;13.348;2023-04-27T13:04:00;101605.34;;;15.48;29.20